sensor_id;sensor_type;location;lat;lon;timestamp;temperature;humidity
43772;HTU21D;59066;54.782;32.024;2023-04-16T00:02:37;7.75;27.91
43772;HTU21D;59066;54.782;32.024;2023-04-16T00:05:05;7.79;27.94
43772;HTU21D;59066;54.782;32.024;2023-04-16T00:07:32;7.83;28.05
43772;HTU21D;59066;54.782;32.024;2023-04-16T00:10:00;7.81;28.07
43772;HTU21D;59066;54.782;32.024;2023-04-16T00:12:28;7.83;28.05
43772;HTU21D;59066;54.782;32.024;2023-04-16T00:14:55;7.78;28.01
43772;HTU21D;59066;54.782;32.024;2023-04-16T00:17:23;7.83;28.00
43772;HTU21D;59066;54.782;32.024;2023-04-16T00:19:50;7.84;28.00
43772;HTU21D;59066;54.782;32.024;2023-04-16T00:22:18;7.92;28.00
43772;HTU21D;59066;54.782;32.024;2023-04-16T00:24:45;7.85;28.10
43772;HTU21D;59066;54.782;32.024;2023-04-16T00:27:13;7.85;28.12
43772;HTU21D;59066;54.782;32.024;2023-04-16T00:29:41;7.88;28.09
43772;HTU21D;59066;54.782;32.024;2023-04-16T00:32:08;7.90;28.10
43772;HTU21D;59066;54.782;32.024;2023-04-16T00:34:36;7.94;28.02
43772;HTU21D;59066;54.782;32.024;2023-04-16T00:37:03;7.87;28.04
43772;HTU21D;59066;54.782;32.024;2023-04-16T00:39:31;7.84;28.08
43772;HTU21D;59066;54.782;32.024;2023-04-16T00:41:58;7.79;28.14
43772;HTU21D;59066;54.782;32.024;2023-04-16T00:44:26;7.78;28.15
43772;HTU21D;59066;54.782;32.024;2023-04-16T00:46:55;7.75;28.27
43772;HTU21D;59066;54.782;32.024;2023-04-16T00:49:23;7.74;28.26
43772;HTU21D;59066;54.782;32.024;2023-04-16T00:51:51;7.75;28.23
43772;HTU21D;59066;54.782;32.024;2023-04-16T00:54:19;7.75;28.26
43772;HTU21D;59066;54.782;32.024;2023-04-16T00:56:46;7.75;28.35
43772;HTU21D;59066;54.782;32.024;2023-04-16T00:59:15;7.72;28.42
43772;HTU21D;59066;54.782;32.024;2023-04-16T01:01:43;7.71;28.45
43772;HTU21D;59066;54.782;32.024;2023-04-16T01:04:10;7.69;28.49
43772;HTU21D;59066;54.782;32.024;2023-04-16T01:06:38;7.71;28.50
43772;HTU21D;59066;54.782;32.024;2023-04-16T01:09:06;7.69;28.48
43772;HTU21D;59066;54.782;32.024;2023-04-16T01:11:34;7.58;28.55
43772;HTU21D;59066;54.782;32.024;2023-04-16T01:14:03;7.50;28.66
43772;HTU21D;59066;54.782;32.024;2023-04-16T01:16:31;7.50;28.63
43772;HTU21D;59066;54.782;32.024;2023-04-16T01:18:59;7.49;28.64
43772;HTU21D;59066;54.782;32.024;2023-04-16T01:21:26;7.50;28.69
43772;HTU21D;59066;54.782;32.024;2023-04-16T01:23:54;7.48;28.71
43772;HTU21D;59066;54.782;32.024;2023-04-16T01:26:21;7.43;28.86
43772;HTU21D;59066;54.782;32.024;2023-04-16T01:28:49;7.40;28.93
43772;HTU21D;59066;54.782;32.024;2023-04-16T01:31:17;7.45;28.86
43772;HTU21D;59066;54.782;32.024;2023-04-16T01:33:59;7.37;29.06
43772;HTU21D;59066;54.782;32.024;2023-04-16T01:36:27;7.35;29.08
43772;HTU21D;59066;54.782;32.024;2023-04-16T01:38:54;7.35;29.17
43772;HTU21D;59066;54.782;32.024;2023-04-16T01:41:22;7.38;29.16
43772;HTU21D;59066;54.782;32.024;2023-04-16T01:43:50;7.37;29.25
43772;HTU21D;59066;54.782;32.024;2023-04-16T01:46:22;7.29;29.65
43772;HTU21D;59066;54.782;32.024;2023-04-16T01:48:53;7.19;29.65
43772;HTU21D;59066;54.782;32.024;2023-04-16T01:51:21;7.24;29.61
43772;HTU21D;59066;54.782;32.024;2023-04-16T01:53:50;7.24;29.93
43772;HTU21D;59066;54.782;32.024;2023-04-16T01:56:17;7.25;29.88
43772;HTU21D;59066;54.782;32.024;2023-04-16T01:58:45;7.20;30.10
43772;HTU21D;59066;54.782;32.024;2023-04-16T02:01:15;7.18;30.08
43772;HTU21D;59066;54.782;32.024;2023-04-16T02:03:44;7.24;30.13
43772;HTU21D;59066;54.782;32.024;2023-04-16T02:06:13;7.25;30.28
43772;HTU21D;59066;54.782;32.024;2023-04-16T02:08:41;7.19;30.38
43772;HTU21D;59066;54.782;32.024;2023-04-16T02:11:09;7.17;30.49
43772;HTU21D;59066;54.782;32.024;2023-04-16T02:13:37;7.17;30.43
43772;HTU21D;59066;54.782;32.024;2023-04-16T02:16:05;7.24;30.42
43772;HTU21D;59066;54.782;32.024;2023-04-16T02:18:55;7.27;30.46
43772;HTU21D;59066;54.782;32.024;2023-04-16T02:21:23;7.20;30.84
43772;HTU21D;59066;54.782;32.024;2023-04-16T02:23:51;7.13;30.99
43772;HTU21D;59066;54.782;32.024;2023-04-16T02:26:25;7.13;31.06
43772;HTU21D;59066;54.782;32.024;2023-04-16T02:28:56;7.05;31.37
43772;HTU21D;59066;54.782;32.024;2023-04-16T02:31:33;7.03;31.55
43772;HTU21D;59066;54.782;32.024;2023-04-16T02:34:03;7.00;31.67
43772;HTU21D;59066;54.782;32.024;2023-04-16T02:36:31;7.07;31.76
43772;HTU21D;59066;54.782;32.024;2023-04-16T02:38:58;7.12;31.69
43772;HTU21D;59066;54.782;32.024;2023-04-16T02:41:26;7.18;31.72
43772;HTU21D;59066;54.782;32.024;2023-04-16T02:43:53;7.19;31.88
43772;HTU21D;59066;54.782;32.024;2023-04-16T02:46:21;7.23;31.86
43772;HTU21D;59066;54.782;32.024;2023-04-16T02:48:49;7.22;32.02
43772;HTU21D;59066;54.782;32.024;2023-04-16T02:51:16;7.23;32.18
43772;HTU21D;59066;54.782;32.024;2023-04-16T02:53:44;7.22;32.35
43772;HTU21D;59066;54.782;32.024;2023-04-16T02:56:13;7.17;32.73
43772;HTU21D;59066;54.782;32.024;2023-04-16T02:58:40;7.16;32.74
43772;HTU21D;59066;54.782;32.024;2023-04-16T03:01:08;7.17;32.83
43772;HTU21D;59066;54.782;32.024;2023-04-16T03:03:35;7.18;32.83
43772;HTU21D;59066;54.782;32.024;2023-04-16T03:06:03;7.11;33.52
43772;HTU21D;59066;54.782;32.024;2023-04-16T03:08:30;7.00;33.89
43772;HTU21D;59066;54.782;32.024;2023-04-16T03:10:58;6.95;33.91
43772;HTU21D;59066;54.782;32.024;2023-04-16T03:13:26;6.96;34.12
43772;HTU21D;59066;54.782;32.024;2023-04-16T03:15:53;6.96;34.02
43772;HTU21D;59066;54.782;32.024;2023-04-16T03:18:21;7.01;33.99
43772;HTU21D;59066;54.782;32.024;2023-04-16T03:20:52;7.07;34.11
43772;HTU21D;59066;54.782;32.024;2023-04-16T03:23:20;7.00;34.61
43772;HTU21D;59066;54.782;32.024;2023-04-16T03:25:48;6.99;34.53
43772;HTU21D;59066;54.782;32.024;2023-04-16T03:28:17;7.03;34.52
43772;HTU21D;59066;54.782;32.024;2023-04-16T03:30:52;7.04;35.17
43772;HTU21D;59066;54.782;32.024;2023-04-16T03:33:20;6.97;35.07
43772;HTU21D;59066;54.782;32.024;2023-04-16T03:35:54;7.02;35.05
43772;HTU21D;59066;54.782;32.024;2023-04-16T03:38:23;7.03;34.97
43772;HTU21D;59066;54.782;32.024;2023-04-16T03:40:55;6.98;35.39
43772;HTU21D;59066;54.782;32.024;2023-04-16T03:43:22;6.97;35.53
43772;HTU21D;59066;54.782;32.024;2023-04-16T03:45:50;7.00;35.50
43772;HTU21D;59066;54.782;32.024;2023-04-16T03:48:21;7.01;35.55
43772;HTU21D;59066;54.782;32.024;2023-04-16T03:50:49;7.09;35.47
43772;HTU21D;59066;54.782;32.024;2023-04-16T03:53:19;7.12;35.60
43772;HTU21D;59066;54.782;32.024;2023-04-16T03:55:51;7.18;35.63
43772;HTU21D;59066;54.782;32.024;2023-04-16T03:58:19;7.17;35.79
43772;HTU21D;59066;54.782;32.024;2023-04-16T04:00:47;7.17;35.93
43772;HTU21D;59066;54.782;32.024;2023-04-16T04:03:16;7.17;36.01
43772;HTU21D;59066;54.782;32.024;2023-04-16T04:05:47;7.19;36.05
43772;HTU21D;59066;54.782;32.024;2023-04-16T04:08:20;7.17;36.16
43772;HTU21D;59066;54.782;32.024;2023-04-16T04:10:48;7.19;36.16
43772;HTU21D;59066;54.782;32.024;2023-04-16T04:13:19;7.03;36.88
43772;HTU21D;59066;54.782;32.024;2023-04-16T04:15:48;6.94;36.96
43772;HTU21D;59066;54.782;32.024;2023-04-16T04:18:16;7.02;36.96
43772;HTU21D;59066;54.782;32.024;2023-04-16T04:20:44;7.07;36.77
43772;HTU21D;59066;54.782;32.024;2023-04-16T04:23:15;7.05;37.05
43772;HTU21D;59066;54.782;32.024;2023-04-16T04:25:44;7.05;37.30
43772;HTU21D;59066;54.782;32.024;2023-04-16T04:28:12;7.08;37.21
43772;HTU21D;59066;54.782;32.024;2023-04-16T04:30:40;7.17;37.09
43772;HTU21D;59066;54.782;32.024;2023-04-16T04:33:08;7.11;37.61
43772;HTU21D;59066;54.782;32.024;2023-04-16T04:35:37;7.19;37.37
43772;HTU21D;59066;54.782;32.024;2023-04-16T04:38:04;7.26;37.33
43772;HTU21D;59066;54.782;32.024;2023-04-16T04:40:33;7.28;37.56
43772;HTU21D;59066;54.782;32.024;2023-04-16T04:43:02;7.25;37.72
43772;HTU21D;59066;54.782;32.024;2023-04-16T04:45:30;7.07;38.53
43772;HTU21D;59066;54.782;32.024;2023-04-16T04:47:58;7.10;38.27
43772;HTU21D;59066;54.782;32.024;2023-04-16T04:50:25;7.15;38.25
43772;HTU21D;59066;54.782;32.024;2023-04-16T04:52:53;7.23;38.34
43772;HTU21D;59066;54.782;32.024;2023-04-16T04:55:21;7.27;38.46
43772;HTU21D;59066;54.782;32.024;2023-04-16T04:57:49;7.31;38.51
43772;HTU21D;59066;54.782;32.024;2023-04-16T05:00:19;7.28;39.08
43772;HTU21D;59066;54.782;32.024;2023-04-16T05:02:52;7.27;39.10
43772;HTU21D;59066;54.782;32.024;2023-04-16T05:05:19;7.29;39.52
43772;HTU21D;59066;54.782;32.024;2023-04-16T05:07:47;7.27;39.78
43772;HTU21D;59066;54.782;32.024;2023-04-16T05:10:15;7.27;40.06
43772;HTU21D;59066;54.782;32.024;2023-04-16T05:12:42;7.27;40.36
43772;HTU21D;59066;54.782;32.024;2023-04-16T05:15:10;7.30;41.29
43772;HTU21D;59066;54.782;32.024;2023-04-16T05:17:38;7.39;40.91
43772;HTU21D;59066;54.782;32.024;2023-04-16T05:20:07;7.31;41.79
43772;HTU21D;59066;54.782;32.024;2023-04-16T05:22:35;7.35;42.36
43772;HTU21D;59066;54.782;32.024;2023-04-16T05:25:03;7.28;43.03
43772;HTU21D;59066;54.782;32.024;2023-04-16T05:27:31;7.30;43.11
43772;HTU21D;59066;54.782;32.024;2023-04-16T05:29:58;7.30;43.36
43772;HTU21D;59066;54.782;32.024;2023-04-16T05:32:26;7.31;43.74
43772;HTU21D;59066;54.782;32.024;2023-04-16T05:34:54;7.28;43.66
43772;HTU21D;59066;54.782;32.024;2023-04-16T05:37:22;7.14;44.37
43772;HTU21D;59066;54.782;32.024;2023-04-16T05:39:50;7.14;44.13
43772;HTU21D;59066;54.782;32.024;2023-04-16T05:42:17;7.28;43.78
43772;HTU21D;59066;54.782;32.024;2023-04-16T05:44:45;7.40;44.26
43772;HTU21D;59066;54.782;32.024;2023-04-16T05:47:13;7.37;44.60
43772;HTU21D;59066;54.782;32.024;2023-04-16T05:49:41;7.37;44.73
43772;HTU21D;59066;54.782;32.024;2023-04-16T05:52:08;7.42;44.90
43772;HTU21D;59066;54.782;32.024;2023-04-16T05:54:36;7.41;45.00
43772;HTU21D;59066;54.782;32.024;2023-04-16T05:57:03;7.45;45.18
43772;HTU21D;59066;54.782;32.024;2023-04-16T05:59:31;7.43;45.32
43772;HTU21D;59066;54.782;32.024;2023-04-16T06:01:59;7.38;45.79
43772;HTU21D;59066;54.782;32.024;2023-04-16T06:04:26;7.41;45.76
43772;HTU21D;59066;54.782;32.024;2023-04-16T06:06:54;7.43;45.98
43772;HTU21D;59066;54.782;32.024;2023-04-16T06:09:21;7.40;46.25
43772;HTU21D;59066;54.782;32.024;2023-04-16T06:11:49;7.26;47.09
43772;HTU21D;59066;54.782;32.024;2023-04-16T06:14:17;7.38;46.54
43772;HTU21D;59066;54.782;32.024;2023-04-16T06:16:44;7.46;46.46
43772;HTU21D;59066;54.782;32.024;2023-04-16T06:19:12;7.52;46.36
43772;HTU21D;59066;54.782;32.024;2023-04-16T06:21:40;7.55;46.33
43772;HTU21D;59066;54.782;32.024;2023-04-16T06:24:07;7.62;46.15
43772;HTU21D;59066;54.782;32.024;2023-04-16T06:26:35;7.75;45.83
43772;HTU21D;59066;54.782;32.024;2023-04-16T06:29:03;7.86;45.67
43772;HTU21D;59066;54.782;32.024;2023-04-16T06:31:30;7.86;45.86
43772;HTU21D;59066;54.782;32.024;2023-04-16T06:33:58;7.78;45.96
43772;HTU21D;59066;54.782;32.024;2023-04-16T06:36:25;7.90;45.99
43772;HTU21D;59066;54.782;32.024;2023-04-16T06:38:54;7.97;45.81
43772;HTU21D;59066;54.782;32.024;2023-04-16T06:41:21;8.04;46.00
43772;HTU21D;59066;54.782;32.024;2023-04-16T06:43:51;7.82;46.80
43772;HTU21D;59066;54.782;32.024;2023-04-16T06:46:19;7.87;46.78
43772;HTU21D;59066;54.782;32.024;2023-04-16T06:48:46;7.92;47.18
43772;HTU21D;59066;54.782;32.024;2023-04-16T06:51:14;7.92;47.84
43772;HTU21D;59066;54.782;32.024;2023-04-16T06:53:42;7.87;47.93
43772;HTU21D;59066;54.782;32.024;2023-04-16T06:56:10;7.84;48.57
43772;HTU21D;59066;54.782;32.024;2023-04-16T06:58:37;7.77;49.34
43772;HTU21D;59066;54.782;32.024;2023-04-16T07:01:05;7.55;49.53
43772;HTU21D;59066;54.782;32.024;2023-04-16T07:03:32;7.55;49.49
43772;HTU21D;59066;54.782;32.024;2023-04-16T07:06:00;7.44;50.37
43772;HTU21D;59066;54.782;32.024;2023-04-16T07:08:28;7.32;51.03
43772;HTU21D;59066;54.782;32.024;2023-04-16T07:10:56;7.19;51.43
43772;HTU21D;59066;54.782;32.024;2023-04-16T07:13:23;7.22;51.56
43772;HTU21D;59066;54.782;32.024;2023-04-16T07:15:51;7.18;51.84
43772;HTU21D;59066;54.782;32.024;2023-04-16T07:18:18;7.27;51.65
43772;HTU21D;59066;54.782;32.024;2023-04-16T07:20:46;7.35;51.64
43772;HTU21D;59066;54.782;32.024;2023-04-16T07:23:14;7.44;51.59
43772;HTU21D;59066;54.782;32.024;2023-04-16T07:25:42;7.44;52.11
43772;HTU21D;59066;54.782;32.024;2023-04-16T07:28:10;7.35;52.92
43772;HTU21D;59066;54.782;32.024;2023-04-16T07:30:37;7.32;52.72
43772;HTU21D;59066;54.782;32.024;2023-04-16T07:33:05;7.44;52.39
43772;HTU21D;59066;54.782;32.024;2023-04-16T07:35:33;7.54;52.65
43772;HTU21D;59066;54.782;32.024;2023-04-16T07:38:00;7.40;52.85
43772;HTU21D;59066;54.782;32.024;2023-04-16T07:40:28;7.53;52.48
43772;HTU21D;59066;54.782;32.024;2023-04-16T07:42:56;7.62;52.43
43772;HTU21D;59066;54.782;32.024;2023-04-16T07:45:23;7.57;52.97
43772;HTU21D;59066;54.782;32.024;2023-04-16T07:47:51;7.39;53.62
43772;HTU21D;59066;54.782;32.024;2023-04-16T07:50:18;7.44;53.84
43772;HTU21D;59066;54.782;32.024;2023-04-16T07:52:46;7.37;53.94
43772;HTU21D;59066;54.782;32.024;2023-04-16T07:55:14;7.45;53.59
43772;HTU21D;59066;54.782;32.024;2023-04-16T07:57:41;7.68;52.99
43772;HTU21D;59066;54.782;32.024;2023-04-16T08:00:09;7.86;52.71
43772;HTU21D;59066;54.782;32.024;2023-04-16T08:02:41;8.00;52.46
43772;HTU21D;59066;54.782;32.024;2023-04-16T08:05:09;8.06;52.43
43772;HTU21D;59066;54.782;32.024;2023-04-16T08:07:38;8.04;52.36
43772;HTU21D;59066;54.782;32.024;2023-04-16T08:10:07;8.17;52.09
43772;HTU21D;59066;54.782;32.024;2023-04-16T08:12:34;8.23;51.92
43772;HTU21D;59066;54.782;32.024;2023-04-16T08:15:02;8.31;51.75
43772;HTU21D;59066;54.782;32.024;2023-04-16T08:17:31;8.34;51.66
43772;HTU21D;59066;54.782;32.024;2023-04-16T08:20:00;8.42;51.59
43772;HTU21D;59066;54.782;32.024;2023-04-16T08:22:28;8.47;51.60
43772;HTU21D;59066;54.782;32.024;2023-04-16T08:24:56;8.52;51.40
43772;HTU21D;59066;54.782;32.024;2023-04-16T08:27:23;8.56;51.45
43772;HTU21D;59066;54.782;32.024;2023-04-16T08:29:51;8.68;51.13
43772;HTU21D;59066;54.782;32.024;2023-04-16T08:32:18;8.59;51.07
43772;HTU21D;59066;54.782;32.024;2023-04-16T08:34:46;8.59;51.06
43772;HTU21D;59066;54.782;32.024;2023-04-16T08:37:13;8.53;51.02
43772;HTU21D;59066;54.782;32.024;2023-04-16T08:39:41;8.45;51.25
43772;HTU21D;59066;54.782;32.024;2023-04-16T08:42:17;8.56;51.17
43772;HTU21D;59066;54.782;32.024;2023-04-16T08:44:52;8.57;51.24
43772;HTU21D;59066;54.782;32.024;2023-04-16T08:47:24;8.67;51.17
43772;HTU21D;59066;54.782;32.024;2023-04-16T08:49:55;8.74;50.79
43772;HTU21D;59066;54.782;32.024;2023-04-16T08:52:24;8.76;50.56
43772;HTU21D;59066;54.782;32.024;2023-04-16T08:55:01;8.52;50.68
43772;HTU21D;59066;54.782;32.024;2023-04-16T08:57:37;8.44;50.92
43772;HTU21D;59066;54.782;32.024;2023-04-16T09:00:06;8.39;50.66
43772;HTU21D;59066;54.782;32.024;2023-04-16T09:02:35;8.31;50.99
43772;HTU21D;59066;54.782;32.024;2023-04-16T09:05:05;8.47;50.94
43772;HTU21D;59066;54.782;32.024;2023-04-16T09:07:34;8.56;50.82
43772;HTU21D;59066;54.782;32.024;2023-04-16T09:10:02;8.64;50.77
43772;HTU21D;59066;54.782;32.024;2023-04-16T09:12:29;8.58;50.90
43772;HTU21D;59066;54.782;32.024;2023-04-16T09:14:58;8.76;50.63
43772;HTU21D;59066;54.782;32.024;2023-04-16T09:17:29;8.89;50.25
43772;HTU21D;59066;54.782;32.024;2023-04-16T09:19:57;8.89;50.12
43772;HTU21D;59066;54.782;32.024;2023-04-16T09:22:25;8.96;49.90
43772;HTU21D;59066;54.782;32.024;2023-04-16T09:24:53;8.89;49.82
43772;HTU21D;59066;54.782;32.024;2023-04-16T09:27:21;8.95;49.67
43772;HTU21D;59066;54.782;32.024;2023-04-16T09:29:51;9.06;49.57
43772;HTU21D;59066;54.782;32.024;2023-04-16T09:32:24;9.12;49.44
43772;HTU21D;59066;54.782;32.024;2023-04-16T09:35:00;9.19;49.27
43772;HTU21D;59066;54.782;32.024;2023-04-16T09:37:29;9.07;49.48
43772;HTU21D;59066;54.782;32.024;2023-04-16T09:40:02;9.20;49.34
43772;HTU21D;59066;54.782;32.024;2023-04-16T09:42:34;9.39;49.03
43772;HTU21D;59066;54.782;32.024;2023-04-16T09:45:03;9.62;48.67
43772;HTU21D;59066;54.782;32.024;2023-04-16T09:47:40;9.53;48.61
43772;HTU21D;59066;54.782;32.024;2023-04-16T09:50:13;9.57;48.68
43772;HTU21D;59066;54.782;32.024;2023-04-16T09:52:47;9.71;48.41
43772;HTU21D;59066;54.782;32.024;2023-04-16T09:55:14;9.88;48.34
43772;HTU21D;59066;54.782;32.024;2023-04-16T09:57:42;9.76;48.41
43772;HTU21D;59066;54.782;32.024;2023-04-16T10:00:10;9.77;48.48
43772;HTU21D;59066;54.782;32.024;2023-04-16T10:02:41;10.00;48.44
43772;HTU21D;59066;54.782;32.024;2023-04-16T10:05:08;10.19;47.89
43772;HTU21D;59066;54.782;32.024;2023-04-16T10:07:42;10.36;47.55
43772;HTU21D;59066;54.782;32.024;2023-04-16T10:10:10;10.21;47.60
43772;HTU21D;59066;54.782;32.024;2023-04-16T10:12:37;10.23;47.68
43772;HTU21D;59066;54.782;32.024;2023-04-16T10:15:06;10.30;47.41
43772;HTU21D;59066;54.782;32.024;2023-04-16T10:17:34;10.13;47.63
43772;HTU21D;59066;54.782;32.024;2023-04-16T10:20:02;10.18;47.57
43772;HTU21D;59066;54.782;32.024;2023-04-16T10:22:30;10.22;47.44
43772;HTU21D;59066;54.782;32.024;2023-04-16T10:24:58;10.42;47.27
43772;HTU21D;59066;54.782;32.024;2023-04-16T10:27:29;10.50;46.75
43772;HTU21D;59066;54.782;32.024;2023-04-16T10:29:57;10.35;47.12
43772;HTU21D;59066;54.782;32.024;2023-04-16T10:32:26;10.51;47.13
43772;HTU21D;59066;54.782;32.024;2023-04-16T10:34:54;10.40;46.96
43772;HTU21D;59066;54.782;32.024;2023-04-16T10:37:31;10.28;47.05
43772;HTU21D;59066;54.782;32.024;2023-04-16T10:39:59;10.12;47.34
43772;HTU21D;59066;54.782;32.024;2023-04-16T10:42:27;10.10;47.31
43772;HTU21D;59066;54.782;32.024;2023-04-16T10:44:58;10.01;47.67
43772;HTU21D;59066;54.782;32.024;2023-04-16T10:47:27;10.12;47.47
43772;HTU21D;59066;54.782;32.024;2023-04-16T10:49:57;10.15;47.45
43772;HTU21D;59066;54.782;32.024;2023-04-16T10:52:28;10.22;47.50
43772;HTU21D;59066;54.782;32.024;2023-04-16T10:54:57;10.36;47.31
43772;HTU21D;59066;54.782;32.024;2023-04-16T10:57:28;10.35;47.25
43772;HTU21D;59066;54.782;32.024;2023-04-16T10:59:55;10.34;47.28
43772;HTU21D;59066;54.782;32.024;2023-04-16T11:02:27;10.28;47.52
43772;HTU21D;59066;54.782;32.024;2023-04-16T11:04:56;10.24;47.58
43772;HTU21D;59066;54.782;32.024;2023-04-16T11:07:32;10.28;47.93
43772;HTU21D;59066;54.782;32.024;2023-04-16T11:10:05;10.44;47.44
43772;HTU21D;59066;54.782;32.024;2023-04-16T11:12:40;10.28;47.72
43772;HTU21D;59066;54.782;32.024;2023-04-16T11:17:45;10.10;48.20
43772;HTU21D;59066;54.782;32.024;2023-04-16T11:22:51;10.05;48.69
43772;HTU21D;59066;54.782;32.024;2023-04-16T11:25:24;10.12;48.76
43772;HTU21D;59066;54.782;32.024;2023-04-16T11:27:52;10.13;48.88
43772;HTU21D;59066;54.782;32.024;2023-04-16T11:30:36;10.22;49.21
43772;HTU21D;59066;54.782;32.024;2023-04-16T11:33:07;10.39;48.88
43772;HTU21D;59066;54.782;32.024;2023-04-16T11:35:36;10.33;48.99
43772;HTU21D;59066;54.782;32.024;2023-04-16T11:38:04;10.20;49.34
43772;HTU21D;59066;54.782;32.024;2023-04-16T11:40:35;10.24;49.34
43772;HTU21D;59066;54.782;32.024;2023-04-16T11:43:13;10.23;49.60
43772;HTU21D;59066;54.782;32.024;2023-04-16T11:45:57;10.16;49.70
43772;HTU21D;59066;54.782;32.024;2023-04-16T11:48:44;10.07;49.93
43772;HTU21D;59066;54.782;32.024;2023-04-16T11:51:14;10.14;49.66
43772;HTU21D;59066;54.782;32.024;2023-04-16T11:53:49;10.31;49.41
43772;HTU21D;59066;54.782;32.024;2023-04-16T11:56:25;10.44;49.21
43772;HTU21D;59066;54.782;32.024;2023-04-16T11:59:12;10.46;49.05
43772;HTU21D;59066;54.782;32.024;2023-04-16T12:01:41;10.52;48.88
43772;HTU21D;59066;54.782;32.024;2023-04-16T12:04:09;10.53;48.86
43772;HTU21D;59066;54.782;32.024;2023-04-16T12:06:37;10.57;48.69
43772;HTU21D;59066;54.782;32.024;2023-04-16T12:09:24;10.62;48.86
43772;HTU21D;59066;54.782;32.024;2023-04-16T12:11:52;10.69;48.51
43772;HTU21D;59066;54.782;32.024;2023-04-16T12:14:20;10.43;48.59
43772;HTU21D;59066;54.782;32.024;2023-04-16T12:16:47;10.36;48.81
43772;HTU21D;59066;54.782;32.024;2023-04-16T12:19:15;10.22;49.31
43772;HTU21D;59066;54.782;32.024;2023-04-16T12:21:45;10.30;49.07
43772;HTU21D;59066;54.782;32.024;2023-04-16T12:24:14;10.35;49.27
43772;HTU21D;59066;54.782;32.024;2023-04-16T12:26:45;10.26;49.18
43772;HTU21D;59066;54.782;32.024;2023-04-16T12:29:23;10.28;49.27
43772;HTU21D;59066;54.782;32.024;2023-04-16T12:31:52;10.29;49.14
43772;HTU21D;59066;54.782;32.024;2023-04-16T12:34:20;10.39;48.98
43772;HTU21D;59066;54.782;32.024;2023-04-16T12:37:06;10.45;49.02
43772;HTU21D;59066;54.782;32.024;2023-04-16T12:39:35;10.44;48.86
43772;HTU21D;59066;54.782;32.024;2023-04-16T12:42:03;10.52;48.82
43772;HTU21D;59066;54.782;32.024;2023-04-16T12:44:32;10.44;48.98
43772;HTU21D;59066;54.782;32.024;2023-04-16T12:47:00;10.40;49.05
43772;HTU21D;59066;54.782;32.024;2023-04-16T12:49:27;10.42;49.09
43772;HTU21D;59066;54.782;32.024;2023-04-16T12:51:55;10.46;48.96
43772;HTU21D;59066;54.782;32.024;2023-04-16T12:54:23;10.46;49.08
43772;HTU21D;59066;54.782;32.024;2023-04-16T12:56:55;10.42;49.08
43772;HTU21D;59066;54.782;32.024;2023-04-16T12:59:23;10.49;48.98
43772;HTU21D;59066;54.782;32.024;2023-04-16T13:01:50;10.50;49.05
43772;HTU21D;59066;54.782;32.024;2023-04-16T13:04:18;10.45;49.28
43772;HTU21D;59066;54.782;32.024;2023-04-16T13:06:47;10.53;49.19
43772;HTU21D;59066;54.782;32.024;2023-04-16T13:09:14;10.51;49.09
43772;HTU21D;59066;54.782;32.024;2023-04-16T13:11:42;10.37;49.52
43772;HTU21D;59066;54.782;32.024;2023-04-16T13:14:10;10.48;49.21
43772;HTU21D;59066;54.782;32.024;2023-04-16T13:16:37;10.52;49.20
43772;HTU21D;59066;54.782;32.024;2023-04-16T13:19:05;10.48;49.37
43772;HTU21D;59066;54.782;32.024;2023-04-16T13:21:33;10.58;49.19
43772;HTU21D;59066;54.782;32.024;2023-04-16T13:24:00;10.75;48.95
43772;HTU21D;59066;54.782;32.024;2023-04-16T13:26:28;10.80;48.69
43772;HTU21D;59066;54.782;32.024;2023-04-16T13:28:56;10.71;48.93
43772;HTU21D;59066;54.782;32.024;2023-04-16T13:31:24;10.67;49.02
43772;HTU21D;59066;54.782;32.024;2023-04-16T13:33:53;10.67;48.94
43772;HTU21D;59066;54.782;32.024;2023-04-16T13:36:21;10.66;49.05
43772;HTU21D;59066;54.782;32.024;2023-04-16T13:38:49;10.72;48.93
43772;HTU21D;59066;54.782;32.024;2023-04-16T13:41:17;10.63;49.19
43772;HTU21D;59066;54.782;32.024;2023-04-16T13:43:45;10.55;49.36
43772;HTU21D;59066;54.782;32.024;2023-04-16T13:46:12;10.55;49.61
43772;HTU21D;59066;54.782;32.024;2023-04-16T13:48:40;10.45;49.70
43772;HTU21D;59066;54.782;32.024;2023-04-16T13:51:07;10.37;49.93
43772;HTU21D;59066;54.782;32.024;2023-04-16T13:53:35;10.40;49.84
43772;HTU21D;59066;54.782;32.024;2023-04-16T13:56:03;10.39;49.98
43772;HTU21D;59066;54.782;32.024;2023-04-16T13:58:31;10.39;50.37
43772;HTU21D;59066;54.782;32.024;2023-04-16T14:00:58;10.35;50.50
43772;HTU21D;59066;54.782;32.024;2023-04-16T14:03:26;10.43;50.14
43772;HTU21D;59066;54.782;32.024;2023-04-16T14:05:53;10.39;50.39
43772;HTU21D;59066;54.782;32.024;2023-04-16T14:08:21;10.43;50.25
43772;HTU21D;59066;54.782;32.024;2023-04-16T14:10:49;10.45;50.29
43772;HTU21D;59066;54.782;32.024;2023-04-16T14:13:17;10.56;50.08
43772;HTU21D;59066;54.782;32.024;2023-04-16T14:15:45;10.59;50.03
43772;HTU21D;59066;54.782;32.024;2023-04-16T14:18:12;10.46;50.31
43772;HTU21D;59066;54.782;32.024;2023-04-16T14:20:40;10.43;50.40
43772;HTU21D;59066;54.782;32.024;2023-04-16T14:23:08;10.40;50.53
43772;HTU21D;59066;54.782;32.024;2023-04-16T14:25:35;10.30;50.65
43772;HTU21D;59066;54.782;32.024;2023-04-16T14:28:03;10.33;50.60
43772;HTU21D;59066;54.782;32.024;2023-04-16T14:30:31;10.41;50.45
43772;HTU21D;59066;54.782;32.024;2023-04-16T14:32:58;10.45;50.50
43772;HTU21D;59066;54.782;32.024;2023-04-16T14:35:27;10.46;50.50
43772;HTU21D;59066;54.782;32.024;2023-04-16T14:37:54;10.42;50.67
43772;HTU21D;59066;54.782;32.024;2023-04-16T14:40:22;10.39;50.91
43772;HTU21D;59066;54.782;32.024;2023-04-16T14:42:50;10.34;50.89
43772;HTU21D;59066;54.782;32.024;2023-04-16T14:45:17;10.28;51.37
43772;HTU21D;59066;54.782;32.024;2023-04-16T14:47:45;10.31;51.24
43772;HTU21D;59066;54.782;32.024;2023-04-16T14:50:14;10.37;50.96
43772;HTU21D;59066;54.782;32.024;2023-04-16T14:52:41;10.34;50.97
43772;HTU21D;59066;54.782;32.024;2023-04-16T14:55:09;10.27;51.15
43772;HTU21D;59066;54.782;32.024;2023-04-16T14:57:36;10.28;50.87
43772;HTU21D;59066;54.782;32.024;2023-04-16T15:00:05;10.30;50.72
43772;HTU21D;59066;54.782;32.024;2023-04-16T15:02:37;10.28;50.72
43772;HTU21D;59066;54.782;32.024;2023-04-16T15:05:05;10.23;50.79
43772;HTU21D;59066;54.782;32.024;2023-04-16T15:07:36;10.24;50.69
43772;HTU21D;59066;54.782;32.024;2023-04-16T15:10:03;10.23;50.60
43772;HTU21D;59066;54.782;32.024;2023-04-16T15:12:31;10.20;50.67
43772;HTU21D;59066;54.782;32.024;2023-04-16T15:14:59;10.26;50.53
43772;HTU21D;59066;54.782;32.024;2023-04-16T15:17:27;10.26;50.56
43772;HTU21D;59066;54.782;32.024;2023-04-16T15:19:54;10.14;50.74
43772;HTU21D;59066;54.782;32.024;2023-04-16T15:22:22;10.12;50.74
43772;HTU21D;59066;54.782;32.024;2023-04-16T15:24:49;10.07;50.84
43772;HTU21D;59066;54.782;32.024;2023-04-16T15:27:17;10.10;50.87